VAR340 YWYY-YSRN

Flight info

Callsign VAR340
Flight time 0h 56m
Altitude 4000
Route NABAGEENA YBFR
Aircraft C182/L-SDFGRZ/S

Departure

Time 2026-05-05 19:21
Airport Wynyard Airport (YWYY)

Arrival

Time 2026-05-05 20:18
Airport Strahan Airport (YSRN)
Time Latitude Longitude Altitude Speed Heading
2026-05-05 19:12 -40.99378 145.72639 66 ft 0 kts 90°
2026-05-05 19:16 -40.99377 145.72639 66 ft 0 kts 90°
2026-05-05 19:16 -40.99378 145.72639 66 ft 0 kts 90°
2026-05-05 19:17 -40.99385 145.72653 65 ft 5 kts 159°
2026-05-05 19:17 -40.99424 145.72666 65 ft 7 kts 172°
2026-05-05 19:17 -40.99476 145.72667 66 ft 7 kts 181°
2026-05-05 19:17 -40.99500 145.72710 63 ft 9 kts 90°
2026-05-05 19:18 -40.99504 145.72817 60 ft 13 kts 92°
2026-05-05 19:18 -40.99516 145.72918 56 ft 9 kts 130°
2026-05-05 19:18 -40.99527 145.72932 56 ft 0 kts 146°
2026-05-05 19:19 -40.99560 145.72947 56 ft 8 kts 178°
2026-05-05 19:19 -40.99583 145.72927 58 ft 0 kts 242°
2026-05-05 19:20 -40.99589 145.72913 59 ft 10 kts 247°
2026-05-05 19:21 -40.99665 145.72693 66 ft 47 kts 243°
2026-05-05 19:21 -40.99876 145.72176 196 ft 73 kts 243°
2026-05-05 19:21 -41.00133 145.71550 441 ft 83 kts 251°
2026-05-05 19:21 -41.00233 145.70747 709 ft 95 kts 273°
2026-05-05 19:22 -41.00214 145.69838 1032 ft 102 kts 276°
2026-05-05 19:22 -41.00179 145.68866 1201 ft 116 kts 274°
2026-05-05 19:22 -41.00182 145.67750 1309 ft 124 kts 271°
2026-05-05 19:22 -41.00184 145.66602 1370 ft 125 kts 271°
2026-05-05 19:23 -41.00182 145.65446 1450 ft 125 kts 271°
2026-05-05 19:23 -41.00179 145.64326 1571 ft 117 kts 273°
2026-05-05 19:23 -41.00150 145.63294 1671 ft 107 kts 274°
2026-05-05 19:23 -41.00108 145.62339 1724 ft 100 kts 275°
2026-05-05 19:24 -41.00054 145.61463 1723 ft 91 kts 275°
2026-05-05 19:24 -41.00003 145.60627 1790 ft 90 kts 276°
2026-05-05 19:24 -40.99962 145.59825 1919 ft 85 kts 276°
2026-05-05 19:24 -40.99929 145.59080 1971 ft 78 kts 275°
2026-05-05 19:25 -40.99897 145.58386 2075 ft 73 kts 275°
2026-05-05 19:25 -40.99869 145.57735 2214 ft 71 kts 275°
2026-05-05 19:25 -40.99836 145.57064 2356 ft 73 kts 275°
2026-05-05 19:25 -40.99790 145.56388 2492 ft 74 kts 276°
2026-05-05 19:26 -40.99740 145.55699 2630 ft 76 kts 275°
2026-05-05 19:26 -40.99686 145.54991 2754 ft 77 kts 276°
2026-05-05 19:26 -40.99642 145.54291 2862 ft 75 kts 276°
2026-05-05 19:26 -40.99603 145.53584 2965 ft 82 kts 276°
2026-05-05 19:27 -40.99563 145.52798 3002 ft 89 kts 276°
2026-05-05 19:27 -40.99517 145.51931 3005 ft 96 kts 276°
2026-05-05 19:27 -40.99476 145.51030 2996 ft 100 kts 276°
2026-05-05 19:27 -40.99451 145.50126 2981 ft 99 kts 275°
2026-05-05 19:28 -40.99441 145.49216 2968 ft 97 kts 277°
2026-05-05 19:28 -40.99412 145.48318 3036 ft 100 kts 276°
2026-05-05 19:28 -40.99384 145.47405 3000 ft 98 kts 276°
2026-05-05 19:28 -40.99356 145.46507 3003 ft 97 kts 275°
2026-05-05 19:29 -40.99319 145.45601 3013 ft 98 kts 275°
2026-05-05 19:29 -40.99277 145.44702 3003 ft 99 kts 275°
2026-05-05 19:29 -40.99235 145.43794 3013 ft 99 kts 276°
2026-05-05 19:29 -40.99200 145.42889 2993 ft 97 kts 275°
2026-05-05 19:30 -40.99161 145.41991 3004 ft 98 kts 275°
2026-05-05 19:30 -40.99118 145.41086 3014 ft 99 kts 275°
2026-05-05 19:30 -40.99073 145.40168 3015 ft 101 kts 275°
2026-05-05 19:30 -40.99025 145.39238 3010 ft 102 kts 275°
2026-05-05 19:31 -40.98974 145.38299 3005 ft 102 kts 275°
2026-05-05 19:31 -40.98921 145.37359 3008 ft 103 kts 275°
2026-05-05 19:31 -40.98867 145.36407 3006 ft 104 kts 276°
2026-05-05 19:31 -40.98813 145.35440 3004 ft 106 kts 275°
2026-05-05 19:32 -40.98759 145.34462 3007 ft 107 kts 276°
2026-05-05 19:32 -40.98709 145.33479 2985 ft 107 kts 275°
2026-05-05 19:32 -40.98660 145.32514 2984 ft 104 kts 275°
2026-05-05 19:32 -40.98610 145.31566 2989 ft 103 kts 275°
2026-05-05 19:33 -40.98551 145.30627 2956 ft 101 kts 276°
2026-05-05 19:33 -40.98497 145.29720 2987 ft 98 kts 276°
2026-05-05 19:33 -40.98454 145.28822 2996 ft 97 kts 276°
2026-05-05 19:33 -40.98427 145.28228 3007 ft 97 kts 276°
2026-05-05 19:34 -40.98382 145.27114 3136 ft 87 kts 275°
2026-05-05 19:34 -40.98352 145.26332 3239 ft 83 kts 275°
2026-05-05 19:34 -40.98325 145.25575 3347 ft 81 kts 275°
2026-05-05 19:35 -40.98275 145.24322 3453 ft 84 kts 275°
2026-05-05 19:35 -40.98240 145.23536 3480 ft 87 kts 275°
2026-05-05 19:35 -40.98207 145.22714 3488 ft 91 kts 275°
2026-05-05 19:35 -40.98175 145.21874 3493 ft 92 kts 275°
2026-05-05 19:36 -40.98141 145.21019 3495 ft 94 kts 275°
2026-05-05 19:36 -40.98105 145.20152 3490 ft 95 kts 275°
2026-05-05 19:36 -40.98062 145.19280 3484 ft 95 kts 275°
2026-05-05 19:36 -40.98017 145.18406 3494 ft 96 kts 275°
2026-05-05 19:37 -40.97973 145.17533 3499 ft 97 kts 275°
2026-05-05 19:37 -40.97936 145.16642 3498 ft 97 kts 272°
2026-05-05 19:37 -40.98243 145.15810 3498 ft 105 kts 243°
2026-05-05 19:37 -40.98904 145.15281 3495 ft 116 kts 217°
2026-05-05 19:38 -40.99637 145.14837 3501 ft 113 kts 224°
2026-05-05 19:38 -41.00263 145.14236 3501 ft 110 kts 231°
2026-05-05 19:38 -41.00852 145.13575 3503 ft 111 kts 233°
2026-05-05 19:38 -41.01430 145.12899 3485 ft 110 kts 234°
2026-05-05 19:39 -41.01999 145.12227 3483 ft 109 kts 234°
2026-05-05 19:39 -41.02561 145.11566 3491 ft 108 kts 234°
2026-05-05 19:39 -41.03127 145.10901 3504 ft 109 kts 234°
2026-05-05 19:39 -41.03697 145.10233 3499 ft 110 kts 234°
2026-05-05 19:40 -41.04262 145.09570 3487 ft 109 kts 234°
2026-05-05 19:40 -41.04828 145.08903 3479 ft 108 kts 234°
2026-05-05 19:40 -41.05390 145.08238 3498 ft 109 kts 234°
2026-05-05 19:40 -41.05958 145.07556 3494 ft 110 kts 234°
2026-05-05 19:41 -41.06526 145.06876 3488 ft 110 kts 234°
2026-05-05 19:41 -41.07089 145.06201 3480 ft 109 kts 234°
2026-05-05 19:41 -41.07675 145.05557 3486 ft 110 kts 231°
2026-05-05 19:41 -41.08275 145.04923 3482 ft 110 kts 231°
2026-05-05 19:42 -41.08889 145.04325 3486 ft 111 kts 229°
2026-05-05 19:42 -41.09523 145.03736 3491 ft 112 kts 228°
2026-05-05 19:42 -41.10168 145.03162 3487 ft 111 kts 227°
2026-05-05 19:42 -41.10813 145.02583 3487 ft 112 kts 227°
2026-05-05 19:43 -41.11456 145.02006 3485 ft 111 kts 227°
2026-05-05 19:43 -41.12102 145.01438 3482 ft 111 kts 227°
2026-05-05 19:43 -41.12759 145.00877 3445 ft 114 kts 227°
2026-05-05 19:43 -41.13402 145.00321 3329 ft 108 kts 227°
2026-05-05 19:44 -41.14016 144.99774 3200 ft 104 kts 228°
2026-05-05 19:44 -41.14596 144.99234 3056 ft 101 kts 230°
2026-05-05 19:44 -41.15179 144.98681 2868 ft 104 kts 230°
2026-05-05 19:44 -41.15765 144.98117 2687 ft 104 kts 230°
2026-05-05 19:45 -41.16342 144.97538 2518 ft 105 kts 230°
2026-05-05 19:45 -41.16932 144.96952 2342 ft 107 kts 230°
2026-05-05 19:45 -41.17532 144.96357 2163 ft 108 kts 231°
2026-05-05 19:45 -41.18127 144.95774 2087 ft 101 kts 230°
2026-05-05 19:46 -41.18684 144.95218 2097 ft 100 kts 230°
2026-05-05 19:46 -41.19245 144.94652 2099 ft 102 kts 230°
2026-05-05 19:46 -41.19821 144.94081 2087 ft 104 kts 230°
2026-05-05 19:46 -41.20402 144.93506 2088 ft 104 kts 230°
2026-05-05 19:47 -41.20978 144.92950 2069 ft 102 kts 228°
2026-05-05 19:47 -41.21581 144.92437 1932 ft 105 kts 225°
2026-05-05 19:47 -41.22219 144.91961 1799 ft 111 kts 213°
2026-05-05 19:47 -41.22981 144.91626 1664 ft 116 kts 205°
2026-05-05 19:48 -41.23746 144.91345 1581 ft 109 kts 207°
2026-05-05 19:48 -41.24404 144.91039 1503 ft 91 kts 216°
2026-05-05 19:48 -41.24879 144.90607 1412 ft 77 kts 234°
2026-05-05 19:48 -41.25208 144.90129 1291 ft 67 kts 243°
2026-05-05 19:49 -41.25471 144.89641 1163 ft 65 kts 245°
2026-05-05 19:49 -41.25702 144.89092 1030 ft 71 kts 247°
2026-05-05 19:49 -41.25948 144.88530 871 ft 64 kts 242°
2026-05-05 19:49 -41.26226 144.88082 1004 ft 68 kts 232°
2026-05-05 19:50 -41.26704 144.87819 1211 ft 82 kts 195°
2026-05-05 19:50 -41.27277 144.87866 1464 ft 90 kts 171°
2026-05-05 19:50 -41.27871 144.88282 1656 ft 101 kts 163°
2026-05-05 19:50 -41.28498 144.88710 1913 ft 102 kts 162°
2026-05-05 19:51 -41.29156 144.89264 1892 ft 118 kts 160°
2026-05-05 19:51 -41.29887 144.89846 1930 ft 126 kts 158°
2026-05-05 19:51 -41.30669 144.90397 1946 ft 128 kts 162°
2026-05-05 19:51 -41.31492 144.90878 1972 ft 130 kts 166°
2026-05-05 19:52 -41.32296 144.91510 2004 ft 139 kts 154°
2026-05-05 19:52 -41.33113 144.92259 2049 ft 146 kts 152°
2026-05-05 19:52 -41.33919 144.93045 2133 ft 141 kts 150°
2026-05-05 19:52 -41.34695 144.93812 2243 ft 137 kts 150°
2026-05-05 19:53 -41.35499 144.94463 2353 ft 134 kts 159°
2026-05-05 19:53 -41.36321 144.95007 2449 ft 130 kts 168°
2026-05-05 19:53 -41.37149 144.95440 2488 ft 124 kts 170°
2026-05-05 19:53 -41.37943 144.95851 2571 ft 123 kts 171°
2026-05-05 19:54 -41.38753 144.96239 2672 ft 125 kts 171°
2026-05-05 19:54 -41.39562 144.96634 2787 ft 127 kts 171°
2026-05-05 19:54 -41.40397 144.97029 2871 ft 127 kts 172°
2026-05-05 19:54 -41.41245 144.97441 2939 ft 132 kts 171°
2026-05-05 19:55 -41.42133 144.97866 2978 ft 138 kts 172°
2026-05-05 19:55 -41.43056 144.98307 2947 ft 141 kts 171°
2026-05-05 19:55 -41.43981 144.98738 2974 ft 141 kts 171°
2026-05-05 19:55 -41.44926 144.99169 3032 ft 146 kts 172°
2026-05-05 19:56 -41.45907 144.99613 3032 ft 146 kts 171°
2026-05-05 19:56 -41.46878 145.00053 3054 ft 149 kts 172°
2026-05-05 19:56 -41.47857 145.00522 2997 ft 149 kts 171°
2026-05-05 19:56 -41.48839 145.00983 2995 ft 150 kts 172°
2026-05-05 19:57 -41.49818 145.01433 2999 ft 149 kts 171°
2026-05-05 19:57 -41.50478 145.01735 3002 ft 148 kts 171°
2026-05-05 19:57 -41.51765 145.02319 2896 ft 140 kts 173°
2026-05-05 19:57 -41.52625 145.02777 2841 ft 128 kts 171°
2026-05-05 19:58 -41.53457 145.03194 2925 ft 132 kts 171°
2026-05-05 19:58 -41.54343 145.03620 2949 ft 138 kts 171°
2026-05-05 19:58 -41.55253 145.04049 2949 ft 139 kts 172°
2026-05-05 19:58 -41.56173 145.04482 2956 ft 141 kts 172°
2026-05-05 19:59 -41.57106 145.04916 2949 ft 142 kts 171°
2026-05-05 19:59 -41.58039 145.05345 2928 ft 141 kts 171°
2026-05-05 19:59 -41.58966 145.05769 2929 ft 141 kts 171°
2026-05-05 19:59 -41.59901 145.06194 2968 ft 143 kts 172°
2026-05-05 20:00 -41.60862 145.06613 2995 ft 148 kts 173°
2026-05-05 20:00 -41.61841 145.07020 2934 ft 144 kts 173°
2026-05-05 20:00 -41.62781 145.07413 2967 ft 138 kts 173°
2026-05-05 20:00 -41.63662 145.07798 3161 ft 131 kts 174°
2026-05-05 20:01 -41.64525 145.08183 3325 ft 129 kts 174°
2026-05-05 20:01 -41.65374 145.08569 3500 ft 128 kts 173°
2026-05-05 20:01 -41.66214 145.08954 3694 ft 128 kts 174°
2026-05-05 20:01 -41.67057 145.09346 3846 ft 131 kts 174°
2026-05-05 20:02 -41.67946 145.09744 3900 ft 138 kts 173°
2026-05-05 20:02 -41.68870 145.10140 3933 ft 144 kts 174°
2026-05-05 20:02 -41.69850 145.10500 3939 ft 147 kts 176°
2026-05-05 20:02 -41.70857 145.10844 3950 ft 151 kts 177°
2026-05-05 20:03 -41.71880 145.11165 3933 ft 151 kts 176°
2026-05-05 20:03 -41.72904 145.11478 3955 ft 152 kts 178°
2026-05-05 20:03 -41.73936 145.11775 3948 ft 151 kts 179°
2026-05-05 20:03 -41.74965 145.12078 3958 ft 152 kts 179°
2026-05-05 20:04 -41.76006 145.12380 3964 ft 154 kts 179°
2026-05-05 20:04 -41.77060 145.12672 3960 ft 155 kts 179°
2026-05-05 20:04 -41.78123 145.12963 3947 ft 155 kts 180°
2026-05-05 20:04 -41.79175 145.13255 3938 ft 154 kts 180°
2026-05-05 20:05 -41.80218 145.13549 3944 ft 153 kts 180°
2026-05-05 20:05 -41.81261 145.13851 3951 ft 154 kts 180°
2026-05-05 20:05 -41.82299 145.14150 3957 ft 155 kts 179°
2026-05-05 20:05 -41.83358 145.14445 3950 ft 155 kts 180°
2026-05-05 20:06 -41.84418 145.14740 3941 ft 155 kts 179°
2026-05-05 20:06 -41.85478 145.15034 3948 ft 156 kts 180°
2026-05-05 20:06 -41.86539 145.15358 3943 ft 156 kts 178°
2026-05-05 20:06 -41.87597 145.15748 3960 ft 160 kts 174°
2026-05-05 20:07 -41.88663 145.16190 3949 ft 160 kts 172°
2026-05-05 20:07 -41.89722 145.16646 3937 ft 159 kts 172°
2026-05-05 20:07 -41.90771 145.17109 3932 ft 158 kts 172°
2026-05-05 20:07 -41.91817 145.17580 3939 ft 158 kts 171°
2026-05-05 20:08 -41.92850 145.18114 3934 ft 160 kts 167°
2026-05-05 20:08 -41.93892 145.18684 3801 ft 161 kts 167°
2026-05-05 20:08 -41.94905 145.19264 3619 ft 159 kts 166°
2026-05-05 20:08 -41.95905 145.19903 3435 ft 159 kts 162°
2026-05-05 20:09 -41.96880 145.20595 3262 ft 158 kts 160°
2026-05-05 20:09 -41.97848 145.21290 3092 ft 158 kts 160°
2026-05-05 20:09 -41.98821 145.21968 2904 ft 156 kts 163°
2026-05-05 20:09 -41.99812 145.22551 2723 ft 155 kts 167°
2026-05-05 20:10 -42.00816 145.23082 2549 ft 155 kts 168°
2026-05-05 20:10 -42.01833 145.23526 2382 ft 153 kts 173°
2026-05-05 20:10 -42.02867 145.23869 2214 ft 153 kts 176°
2026-05-05 20:10 -42.03888 145.24153 2019 ft 149 kts 178°
2026-05-05 20:11 -42.04900 145.24413 1842 ft 147 kts 178°
2026-05-05 20:11 -42.05904 145.24673 1669 ft 147 kts 179°
2026-05-05 20:11 -42.06894 145.24918 1539 ft 141 kts 179°
2026-05-05 20:11 -42.07830 145.25140 1466 ft 131 kts 179°
2026-05-05 20:12 -42.08704 145.25371 1437 ft 126 kts 179°
2026-05-05 20:12 -42.09552 145.25616 1440 ft 123 kts 179°
2026-05-05 20:12 -42.10393 145.25846 1380 ft 126 kts 179°
2026-05-05 20:12 -42.11271 145.26048 1244 ft 128 kts 182°
2026-05-05 20:13 -42.12146 145.26045 1123 ft 124 kts 193°
2026-05-05 20:13 -42.12977 145.25981 1068 ft 115 kts 195°
2026-05-05 20:13 -42.13737 145.25882 1049 ft 106 kts 197°
2026-05-05 20:13 -42.14440 145.25779 1028 ft 98 kts 199°
2026-05-05 20:14 -42.15083 145.25662 1020 ft 91 kts 201°
2026-05-05 20:14 -42.15703 145.25515 1028 ft 89 kts 211°
2026-05-05 20:14 -42.16302 145.25315 1021 ft 90 kts 211°
2026-05-05 20:14 -42.16893 145.25100 1024 ft 86 kts 217°
2026-05-05 20:15 -42.17463 145.24833 1001 ft 89 kts 209°
2026-05-05 20:15 -42.18125 145.24886 899 ft 101 kts 176°
2026-05-05 20:15 -42.18694 145.25418 892 ft 97 kts 130°
2026-05-05 20:15 -42.18962 145.26189 862 ft 88 kts 94°
2026-05-05 20:16 -42.18899 145.26950 782 ft 75 kts 45°
2026-05-05 20:16 -42.18626 145.27525 696 ft 72 kts 34°
2026-05-05 20:16 -42.18296 145.28000 656 ft 69 kts 21°
2026-05-05 20:16 -42.17904 145.28341 558 ft 64 kts
2026-05-05 20:17 -42.17646 145.28473 490 ft 58 kts 359°
2026-05-05 20:17 -42.17257 145.28533 408 ft 56 kts 349°
2026-05-05 20:17 -42.16860 145.28652 333 ft 59 kts
2026-05-05 20:17 -42.16485 145.28751 219 ft 52 kts 351°
2026-05-05 20:18 -42.16023 145.28873 79 ft 46 kts 354°
2026-05-05 20:18 -42.15844 145.28913 72 ft 30 kts 10°
2026-05-05 20:18 -42.15663 145.28968 69 ft 24 kts 12°
2026-05-05 20:18 -42.15516 145.29012 71 ft 19 kts 11°
2026-05-05 20:19 -42.15395 145.29043 69 ft 17 kts 12°
2026-05-05 20:19 -42.15286 145.29073 72 ft 15 kts 11°
2026-05-05 20:19 -42.15223 145.29108 71 ft 8 kts 62°
2026-05-05 20:19 -42.15222 145.29163 75 ft 5 kts 98°
2026-05-05 20:20 -42.15223 145.29187 75 ft 5 kts 93°
2026-05-05 20:20 -42.15235 145.29224 71 ft 5 kts 157°
2026-05-05 20:20 -42.15249 145.29224 76 ft 0 kts 186°